createdAt,value
2023-04-26T00:02:13.583Z,98948.28
2023-04-26T00:05:04.335Z,98951.13
2023-04-26T00:07:51.563Z,98949.84
2023-04-26T00:10:40.842Z,98953.22
2023-04-26T00:13:28.049Z,98950.66
2023-04-26T00:16:15.093Z,98936.84
2023-04-26T00:19:02.381Z,98946.09
2023-04-26T00:21:49.459Z,98937.56
2023-04-26T00:24:36.690Z,98933.91
2023-04-26T00:27:23.768Z,98937.84
2023-04-26T00:30:11.433Z,98934.00
2023-04-26T00:32:58.469Z,98942.53
2023-04-26T00:35:45.585Z,98954.91
2023-04-26T00:38:32.711Z,98958.94
2023-04-26T00:41:19.749Z,98943.78
2023-04-26T00:44:06.903Z,98946.06
2023-04-26T00:46:54.219Z,98962.34
2023-04-26T00:49:41.883Z,98956.94
2023-04-26T00:52:29.375Z,98956.56
2023-04-26T00:55:17.255Z,98960.22
2023-04-26T00:58:04.354Z,98966.38
2023-04-26T01:00:51.828Z,98968.63
2023-04-26T01:03:39.086Z,98976.28
2023-04-26T01:06:32.894Z,98978.25
2023-04-26T01:09:20.056Z,98971.34
2023-04-26T01:12:08.705Z,98971.59
2023-04-26T01:14:57.010Z,98962.59
2023-04-26T01:17:47.348Z,98951.81
2023-04-26T01:20:34.979Z,98955.50
2023-04-26T01:23:22.212Z,98944.03
2023-04-26T01:26:09.348Z,98956.22
2023-04-26T01:28:56.424Z,98958.94
2023-04-26T01:31:44.125Z,98957.72
2023-04-26T01:34:33.230Z,98959.38
2023-04-26T01:37:20.566Z,98968.97
2023-04-26T01:40:08.358Z,98963.94
2023-04-26T01:42:55.442Z,98973.75
2023-04-26T01:45:42.507Z,98981.53
2023-04-26T01:48:29.566Z,98974.97
2023-04-26T01:51:17.015Z,98983.91
2023-04-26T01:54:04.234Z,98974.09
2023-04-26T01:56:51.339Z,98975.78
2023-04-26T01:59:38.449Z,98980.31
2023-04-26T02:02:25.614Z,98991.63
2023-04-26T02:05:12.798Z,98984.66
2023-04-26T02:08:00.029Z,98993.50
2023-04-26T02:10:47.276Z,98986.41
2023-04-26T02:13:34.451Z,99003.72
2023-04-26T02:16:21.953Z,99003.25
2023-04-26T02:19:11.129Z,99010.50
2023-04-26T02:21:58.628Z,99006.28
2023-04-26T02:24:45.875Z,99015.50
2023-04-26T02:27:33.172Z,98992.28
2023-04-26T02:30:20.376Z,98992.16
2023-04-26T02:33:07.565Z,98999.63
2023-04-26T02:35:54.723Z,98998.53
2023-04-26T02:38:41.888Z,98986.16
2023-04-26T02:41:28.939Z,98976.34
2023-04-26T02:44:16.017Z,98962.13
2023-04-26T02:47:03.173Z,98973.81
2023-04-26T02:49:51.391Z,98982.94
2023-04-26T02:52:38.788Z,98994.78
2023-04-26T02:55:25.881Z,98995.16
2023-04-26T02:58:13.319Z,99015.84
2023-04-26T03:01:01.629Z,99007.84
2023-04-26T03:03:49.475Z,99007.00
2023-04-26T03:06:36.706Z,99003.88
2023-04-26T03:09:23.879Z,98999.50
2023-04-26T03:12:12.307Z,99004.22
2023-04-26T03:14:59.408Z,98991.97
2023-04-26T03:17:46.699Z,99003.38
2023-04-26T03:20:33.944Z,99007.78
2023-04-26T03:23:24.480Z,99001.44
2023-04-26T03:26:11.579Z,99007.84
2023-04-26T03:28:58.825Z,99001.72
2023-04-26T03:31:45.994Z,99011.06
2023-04-26T03:34:33.226Z,99006.47
2023-04-26T03:37:20.248Z,99025.72
2023-04-26T03:40:10.722Z,99015.19
2023-04-26T03:42:57.772Z,99029.97
2023-04-26T03:45:49.044Z,99031.44
2023-04-26T03:48:36.265Z,99024.53
2023-04-26T03:51:23.300Z,99029.78
2023-04-26T03:54:11.201Z,99036.44
2023-04-26T03:56:58.311Z,99040.44
2023-04-26T03:59:45.331Z,99048.53
2023-04-26T04:02:33.605Z,99040.06
2023-04-26T04:05:21.223Z,99040.56
2023-04-26T04:08:08.307Z,99033.75
2023-04-26T04:10:56.769Z,99057.50
2023-04-26T04:13:43.906Z,99039.56
2023-04-26T04:16:31.454Z,99046.97
2023-04-26T04:19:19.064Z,99054.72
2023-04-26T04:22:06.155Z,99058.25
2023-04-26T04:24:53.291Z,99050.72
2023-04-26T04:27:42.770Z,99049.03
2023-04-26T04:30:30.995Z,99053.88
2023-04-26T04:33:19.316Z,99054.25
2023-04-26T04:36:07.542Z,99056.38
2023-04-26T04:38:55.039Z,99053.72
2023-04-26T04:41:48.450Z,99059.97
2023-04-26T04:44:35.585Z,99063.94
2023-04-26T04:47:22.848Z,99063.66
2023-04-26T04:50:10.251Z,99071.25
2023-04-26T04:52:57.320Z,99075.56
2023-04-26T04:55:44.583Z,99081.88
2023-04-26T04:58:31.635Z,99074.47
2023-04-26T05:01:19.457Z,99083.53
2023-04-26T05:04:07.854Z,99078.22
2023-04-26T05:06:55.036Z,99094.31
2023-04-26T05:09:42.824Z,99095.88
2023-04-26T05:12:29.886Z,99090.22
2023-04-26T05:15:16.959Z,99085.06
2023-04-26T05:18:04.285Z,99072.38
2023-04-26T05:20:51.476Z,99077.31
2023-04-26T05:23:38.585Z,99070.38
2023-04-26T05:26:25.862Z,99066.91
2023-04-26T05:29:12.958Z,99075.38
2023-04-26T05:32:00.165Z,99080.88
2023-04-26T05:34:47.599Z,99086.63
2023-04-26T05:37:35.915Z,99088.75
2023-04-26T05:40:22.961Z,99085.66
2023-04-26T05:43:10.057Z,99088.59
2023-04-26T05:45:57.510Z,99094.81
2023-04-26T05:48:44.701Z,99100.53
2023-04-26T05:51:31.770Z,99087.03
2023-04-26T05:54:18.914Z,99100.28
2023-04-26T05:57:07.031Z,99097.94
2023-04-26T05:59:54.199Z,99090.94
2023-04-26T06:02:41.835Z,99087.84
2023-04-26T06:05:29.241Z,99106.34
2023-04-26T06:08:16.675Z,99100.69
2023-04-26T06:11:03.893Z,99105.66
2023-04-26T06:13:51.199Z,99100.13
2023-04-26T06:16:38.778Z,99103.53
2023-04-26T06:19:26.036Z,99120.16
2023-04-26T06:22:13.117Z,99116.06
2023-04-26T06:25:00.422Z,99115.66
2023-04-26T06:27:47.654Z,99114.81
2023-04-26T06:30:34.754Z,99110.84
2023-04-26T06:33:21.884Z,99109.88
2023-04-26T06:36:13.090Z,99114.78
2023-04-26T06:39:00.177Z,99108.72
2023-04-26T06:41:47.340Z,99122.25
2023-04-26T06:44:34.528Z,99115.78
2023-04-26T06:47:21.764Z,99119.75
2023-04-26T06:50:09.864Z,99119.44
2023-04-26T06:52:57.039Z,99113.53
2023-04-26T06:55:44.476Z,99114.53
2023-04-26T06:58:31.570Z,99111.94
2023-04-26T07:01:18.672Z,99110.75
2023-04-26T07:04:10.932Z,99113.69
2023-04-26T07:06:58.355Z,99105.50
2023-04-26T07:09:45.527Z,99099.97
2023-04-26T07:12:32.621Z,99101.66
2023-04-26T07:15:19.764Z,99091.34
2023-04-26T07:18:06.978Z,99091.66
2023-04-26T07:20:54.135Z,99093.47
2023-04-26T07:23:41.208Z,99088.47
2023-04-26T07:26:28.477Z,99094.31
2023-04-26T07:29:16.091Z,99088.66
2023-04-26T07:32:03.952Z,99086.09
2023-04-26T07:34:51.069Z,99090.03
2023-04-26T07:37:38.140Z,99079.53
2023-04-26T07:40:26.455Z,99089.63
2023-04-26T07:43:15.520Z,99102.59
2023-04-26T07:46:02.842Z,99099.72
2023-04-26T07:48:50.014Z,99102.97
2023-04-26T07:51:37.516Z,99091.81
2023-04-26T07:54:24.636Z,99108.66
2023-04-26T07:57:11.726Z,99105.41
2023-04-26T07:59:58.879Z,99110.06
2023-04-26T08:02:47.268Z,99121.09
2023-04-26T08:05:34.982Z,99115.72
2023-04-26T08:08:23.058Z,99122.78
2023-04-26T08:11:10.860Z,99118.56
2023-04-26T08:13:57.967Z,99106.53
2023-04-26T08:16:45.090Z,99101.88
2023-04-26T08:19:33.564Z,99110.25
2023-04-26T08:22:20.740Z,99113.03
2023-04-26T08:25:08.176Z,99113.63
2023-04-26T08:27:55.444Z,99111.03
2023-04-26T08:30:43.700Z,99104.97
2023-04-26T08:33:31.002Z,99115.03
2023-04-26T08:36:18.157Z,99109.72
2023-04-26T08:39:05.293Z,99122.41
2023-04-26T08:41:57.610Z,99106.38
2023-04-26T08:44:46.242Z,99116.84
2023-04-26T08:47:45.281Z,99111.94
2023-04-26T08:50:34.639Z,99108.59
2023-04-26T08:53:22.087Z,99103.75
2023-04-26T08:56:10.967Z,99106.88
2023-04-26T08:58:59.447Z,99110.25
2023-04-26T09:01:47.662Z,99106.84
2023-04-26T09:04:35.481Z,99097.34
2023-04-26T09:07:33.786Z,99104.50
2023-04-26T09:10:22.481Z,99098.94
2023-04-26T09:13:09.707Z,99095.97
2023-04-26T09:15:56.868Z,99105.19
2023-04-26T09:18:57.402Z,99109.97
2023-04-26T09:21:46.685Z,99076.56
2023-04-26T09:24:54.044Z,99095.06
2023-04-26T09:27:46.099Z,99098.34
2023-04-26T09:30:40.083Z,99096.00
2023-04-26T09:33:27.175Z,99108.50
2023-04-26T09:36:14.371Z,99100.00
2023-04-26T09:39:01.730Z,99101.03
2023-04-26T09:41:48.885Z,99108.88
2023-04-26T09:44:36.734Z,99097.75
2023-04-26T09:47:23.869Z,99108.97
2023-04-26T09:50:11.097Z,99124.72
2023-04-26T09:52:58.371Z,99119.88
2023-04-26T09:55:45.512Z,99133.91
2023-04-26T09:58:32.682Z,99136.53
2023-04-26T10:01:20.581Z,99141.38
2023-04-26T10:04:08.238Z,99145.53
2023-04-26T10:06:55.653Z,99141.88
2023-04-26T10:09:43.133Z,99136.78
2023-04-26T10:12:30.844Z,99125.09
2023-04-26T10:15:18.903Z,99123.13
2023-04-26T10:18:06.319Z,99121.75
2023-04-26T10:20:57.474Z,99101.94
2023-04-26T10:23:45.464Z,99105.19
2023-04-26T10:26:52.131Z,99108.75
2023-04-26T10:29:54.220Z,99106.81
2023-04-26T10:33:01.569Z,99091.06
2023-04-26T10:36:15.436Z,99088.31
2023-04-26T10:39:21.958Z,99084.88
2023-04-26T10:42:30.491Z,99084.34
2023-04-26T10:45:29.216Z,99084.38
2023-04-26T10:48:28.257Z,99083.84
2023-04-26T10:51:15.916Z,99077.81
2023-04-26T10:54:04.342Z,99080.66
2023-04-26T10:56:52.180Z,99070.16
2023-04-26T10:59:51.190Z,99064.22
2023-04-26T11:02:54.414Z,99050.84
2023-04-26T11:05:47.456Z,99067.78
2023-04-26T11:08:36.974Z,99063.34
2023-04-26T11:11:27.270Z,99047.63
2023-04-26T11:14:14.633Z,99045.75
2023-04-26T11:17:08.530Z,99036.66
2023-04-26T11:19:55.630Z,99045.72
2023-04-26T11:22:42.769Z,99055.84
2023-04-26T11:25:30.400Z,99039.81
2023-04-26T11:28:19.289Z,99056.06
2023-04-26T11:31:07.750Z,99060.25
2023-04-26T11:33:54.937Z,99061.44
2023-04-26T11:36:42.293Z,99060.31
2023-04-26T11:39:31.017Z,99053.63
2023-04-26T11:42:18.037Z,99062.31
2023-04-26T11:45:07.597Z,99060.25
2023-04-26T11:47:55.390Z,99053.72
2023-04-26T11:50:42.846Z,99050.09
2023-04-26T11:53:40.628Z,99050.84
2023-04-26T11:56:27.739Z,99057.16
2023-04-26T11:59:24.366Z,99051.19
2023-04-26T12:02:12.500Z,99052.38
2023-04-26T12:04:59.935Z,99054.66
2023-04-26T12:07:50.803Z,99058.66
2023-04-26T12:10:38.750Z,99050.16
2023-04-26T12:13:25.927Z,99043.25
2023-04-26T12:16:25.567Z,99044.25
2023-04-26T12:19:14.018Z,99048.25
2023-04-26T12:22:01.284Z,99068.03
2023-04-26T12:24:49.033Z,99060.91
2023-04-26T12:27:36.199Z,99065.84
2023-04-26T12:30:23.375Z,99044.53
2023-04-26T12:33:17.278Z,99059.78
2023-04-26T12:36:12.698Z,99049.09
2023-04-26T12:39:01.044Z,99052.13
2023-04-26T12:41:48.176Z,99058.56
2023-04-26T12:44:35.250Z,99046.03
2023-04-26T12:47:22.343Z,99045.06
2023-04-26T12:50:12.077Z,99045.63
2023-04-26T12:52:59.363Z,99036.50
2023-04-26T12:55:46.592Z,99052.22
2023-04-26T12:58:33.755Z,99049.31
2023-04-26T13:01:21.088Z,99024.13
2023-04-26T13:04:08.810Z,99045.75
2023-04-26T13:06:56.007Z,99022.41
2023-04-26T13:09:43.280Z,99040.88
2023-04-26T13:12:30.998Z,99028.09
2023-04-26T13:15:18.258Z,99025.13
2023-04-26T13:18:05.565Z,99033.47
2023-04-26T13:20:53.253Z,99028.72
2023-04-26T13:23:40.338Z,99023.63
2023-04-26T13:26:28.060Z,99022.78
2023-04-26T13:29:15.163Z,99031.28
2023-04-26T13:32:03.206Z,99038.31
2023-04-26T13:34:50.486Z,99038.00
2023-04-26T13:37:37.817Z,99039.94
2023-04-26T13:40:24.877Z,99050.16
2023-04-26T13:43:11.977Z,99051.53
2023-04-26T13:45:59.346Z,99050.31
2023-04-26T13:48:46.530Z,99040.13
2023-04-26T13:51:34.891Z,99039.38
2023-04-26T13:54:28.154Z,99025.56
2023-04-26T13:57:15.247Z,99032.97
2023-04-26T14:00:02.478Z,98980.09
2023-04-26T14:02:50.341Z,99007.66
2023-04-26T14:05:37.562Z,99016.47
2023-04-26T14:08:24.737Z,99028.59
2023-04-26T14:11:13.239Z,99020.25
2023-04-26T14:14:00.953Z,99028.75
2023-04-26T14:16:48.103Z,99017.59
2023-04-26T14:19:35.111Z,99030.59
2023-04-26T14:22:22.242Z,99026.75
2023-04-26T14:25:10.523Z,99031.31
2023-04-26T14:27:57.640Z,99025.91
2023-04-26T14:30:44.911Z,99017.66
2023-04-26T14:33:32.314Z,99023.34
2023-04-26T14:36:19.404Z,99033.50
2023-04-26T14:39:06.434Z,99021.03
2023-04-26T14:41:55.408Z,99023.84
2023-04-26T14:44:42.777Z,99015.56
2023-04-26T14:47:30.467Z,99007.16
2023-04-26T14:50:19.740Z,99007.94
2023-04-26T14:53:06.931Z,98999.50
2023-04-26T14:55:58.515Z,99000.56
2023-04-26T14:58:45.640Z,98997.53
2023-04-26T15:01:32.768Z,99012.28
2023-04-26T15:04:20.036Z,99004.66
2023-04-26T15:07:13.030Z,98995.34
2023-04-26T15:10:08.950Z,99004.06
2023-04-26T15:12:56.518Z,99012.47
2023-04-26T15:15:43.598Z,99004.31
2023-04-26T15:18:31.065Z,99006.25
2023-04-26T15:21:19.313Z,99005.31
2023-04-26T15:24:07.880Z,99012.91
2023-04-26T15:26:55.134Z,98995.84
2023-04-26T15:29:42.264Z,99013.72
2023-04-26T15:32:30.256Z,99018.09
2023-04-26T15:35:17.598Z,99004.56
2023-04-26T15:38:05.098Z,99013.34
2023-04-26T15:40:52.232Z,99021.16
2023-04-26T15:43:39.326Z,99014.72
2023-04-26T15:46:26.966Z,99014.47
2023-04-26T15:49:14.196Z,99006.22
2023-04-26T15:52:01.328Z,99011.97
2023-04-26T15:54:48.582Z,99014.75
2023-04-26T15:57:35.928Z,99021.53
2023-04-26T16:00:23.154Z,99012.28
2023-04-26T16:03:10.481Z,99005.28
2023-04-26T16:05:57.733Z,99002.91
2023-04-26T16:08:45.450Z,99002.28
2023-04-26T16:11:32.459Z,99001.84
2023-04-26T16:14:19.716Z,98991.94
2023-04-26T16:17:06.806Z,99001.88
2023-04-26T16:19:54.028Z,98981.97
2023-04-26T16:22:42.311Z,98982.84
2023-04-26T16:25:30.578Z,99000.03
2023-04-26T16:28:18.054Z,98992.63
2023-04-26T16:31:06.485Z,98988.75
2023-04-26T16:33:53.546Z,98992.94
2023-04-26T16:36:40.723Z,99004.06
2023-04-26T16:39:28.768Z,99000.94
2023-04-26T16:42:15.892Z,98999.22
2023-04-26T16:45:03.286Z,98989.78
2023-04-26T16:47:50.578Z,98993.19
2023-04-26T16:50:37.768Z,98995.25
2023-04-26T16:53:24.994Z,98990.72
2023-04-26T16:56:12.073Z,99006.88
2023-04-26T16:58:59.264Z,99003.13
2023-04-26T17:01:47.437Z,99005.47
2023-04-26T17:04:34.837Z,99013.75
2023-04-26T17:07:22.377Z,99009.84
2023-04-26T17:10:10.228Z,99008.94
2023-04-26T17:12:57.453Z,98998.94
2023-04-26T17:15:44.726Z,99017.28
2023-04-26T17:18:31.752Z,99020.28
2023-04-26T17:21:18.874Z,99010.06
2023-04-26T17:24:06.218Z,99027.88
2023-04-26T17:26:53.311Z,99014.38
2023-04-26T17:29:40.818Z,99007.84
2023-04-26T17:32:28.259Z,99029.38
2023-04-26T17:35:15.316Z,99038.13
2023-04-26T17:38:02.986Z,99039.81
2023-04-26T17:40:56.046Z,99046.06
2023-04-26T17:43:44.414Z,99035.81
2023-04-26T17:46:31.596Z,99042.34
2023-04-26T17:49:20.174Z,99046.44
2023-04-26T17:52:07.433Z,99049.72
2023-04-26T17:54:55.214Z,99049.56
2023-04-26T17:57:42.814Z,99054.25
2023-04-26T18:00:30.020Z,99062.72
2023-04-26T18:03:17.549Z,99059.13
2023-04-26T18:06:07.415Z,99056.94
2023-04-26T18:08:54.624Z,99077.59
2023-04-26T18:11:42.104Z,99070.63
2023-04-26T18:14:29.642Z,99075.72
2023-04-26T18:17:17.202Z,99077.47
2023-04-26T18:20:05.244Z,99078.31
2023-04-26T18:22:53.452Z,99092.66
2023-04-26T18:25:41.963Z,99080.41
2023-04-26T18:28:29.296Z,99098.47
2023-04-26T18:31:18.167Z,99098.03
2023-04-26T18:34:06.394Z,99082.94
2023-04-26T18:36:53.928Z,99097.03
2023-04-26T18:39:41.682Z,99105.06
2023-04-26T18:42:29.902Z,99106.66
2023-04-26T18:45:18.033Z,99108.34
2023-04-26T18:48:06.550Z,99110.28
2023-04-26T18:50:57.608Z,99106.63
2023-04-26T18:53:45.315Z,99118.75
2023-04-26T18:56:32.852Z,99111.97
2023-04-26T18:59:20.313Z,99106.34
2023-04-26T19:02:11.053Z,99121.84
2023-04-26T19:05:01.944Z,99135.41
2023-04-26T19:07:53.679Z,99123.41
2023-04-26T19:10:41.472Z,99124.81
2023-04-26T19:13:29.055Z,99134.81
2023-04-26T19:16:17.070Z,99145.94
2023-04-26T19:19:07.009Z,99136.78
2023-04-26T19:22:03.978Z,99144.81
2023-04-26T19:24:52.396Z,99139.44
2023-04-26T19:27:46.438Z,99129.88
2023-04-26T19:30:34.524Z,99161.00
2023-04-26T19:33:22.682Z,99148.91
2023-04-26T19:36:11.218Z,99145.94
2023-04-26T19:38:59.154Z,99147.06
2023-04-26T19:41:46.397Z,99146.03
2023-04-26T19:44:33.647Z,99134.31
2023-04-26T19:47:21.368Z,99138.84
2023-04-26T19:50:11.193Z,99150.38
2023-04-26T19:53:01.706Z,99168.84
2023-04-26T19:55:49.728Z,99166.22
2023-04-26T19:58:38.269Z,99150.75
2023-04-26T20:01:27.022Z,99171.69
2023-04-26T20:04:15.188Z,99177.81
2023-04-26T20:07:05.387Z,99178.91
2023-04-26T20:09:53.002Z,99180.91
2023-04-26T20:12:42.524Z,99184.69
2023-04-26T20:15:33.020Z,99185.06
2023-04-26T20:18:21.954Z,99178.13
2023-04-26T20:21:09.540Z,99179.00
2023-04-26T20:23:57.271Z,99174.50
2023-04-26T20:26:44.832Z,99189.66
2023-04-26T20:29:32.522Z,99175.41
2023-04-26T20:32:20.093Z,99201.78
2023-04-26T20:35:09.857Z,99177.44
2023-04-26T20:37:57.898Z,99191.84
2023-04-26T20:40:45.493Z,99192.94
2023-04-26T20:43:34.660Z,99182.97
2023-04-26T20:46:22.244Z,99184.34
2023-04-26T20:49:09.874Z,99191.88
2023-04-26T20:51:57.290Z,99199.53
2023-04-26T20:54:46.402Z,99194.56
2023-04-26T20:57:33.534Z,99198.03
2023-04-26T21:00:20.934Z,99207.41
2023-04-26T21:03:08.590Z,99201.56
2023-04-26T21:05:55.877Z,99211.56
2023-04-26T21:08:43.201Z,99212.53
2023-04-26T21:11:30.355Z,99208.16
2023-04-26T21:14:17.781Z,99212.72
2023-04-26T21:17:05.957Z,99209.34
2023-04-26T21:19:53.041Z,99220.41
2023-04-26T21:22:40.293Z,99221.25
2023-04-26T21:25:28.004Z,99227.84
2023-04-26T21:28:16.088Z,99225.16
2023-04-26T21:31:04.841Z,99220.00
2023-04-26T21:33:52.058Z,99209.25
2023-04-26T21:36:39.154Z,99224.91
2023-04-26T21:39:26.227Z,99234.31
2023-04-26T21:42:13.328Z,99234.72
2023-04-26T21:45:00.881Z,99231.44
2023-04-26T21:47:47.950Z,99240.63
2023-04-26T21:50:35.106Z,99252.16
2023-04-26T21:53:22.141Z,99241.16
2023-04-26T21:56:09.252Z,99246.47
2023-04-26T21:58:56.329Z,99254.81
2023-04-26T22:01:43.481Z,99254.50
2023-04-26T22:04:30.636Z,99248.69
2023-04-26T22:07:17.956Z,99251.94
2023-04-26T22:10:05.431Z,99237.19
2023-04-26T22:12:53.084Z,99256.44
2023-04-26T22:15:40.132Z,99271.47
2023-04-26T22:18:28.602Z,99256.22
2023-04-26T22:21:15.703Z,99251.00
2023-04-26T22:24:02.901Z,99277.19
2023-04-26T22:26:49.977Z,99263.72
2023-04-26T22:29:37.066Z,99279.34
2023-04-26T22:32:24.733Z,99263.94
2023-04-26T22:35:11.930Z,99289.25
2023-04-26T22:37:59.094Z,99282.69
2023-04-26T22:40:46.169Z,99286.56
2023-04-26T22:43:36.527Z,99295.94
2023-04-26T22:46:23.675Z,99292.66
2023-04-26T22:49:11.197Z,99290.19
2023-04-26T22:52:07.877Z,99308.56
2023-04-26T22:55:00.132Z,99299.03
2023-04-26T22:57:47.403Z,99287.19
2023-04-26T23:03:37.008Z,99309.78
2023-04-26T23:06:24.220Z,99308.41
2023-04-26T23:09:11.807Z,99310.47
2023-04-26T23:12:05.730Z,99321.50
2023-04-26T23:14:53.695Z,99318.03
2023-04-26T23:17:42.030Z,99330.50
2023-04-26T23:20:29.169Z,99340.19
2023-04-26T23:23:16.217Z,99324.84
2023-04-26T23:26:08.474Z,99335.31
2023-04-26T23:28:55.750Z,99328.97
2023-04-26T23:31:43.164Z,99326.56
2023-04-26T23:34:30.349Z,99337.22
2023-04-26T23:37:17.748Z,99328.25
2023-04-26T23:40:10.285Z,99339.97
2023-04-26T23:42:57.554Z,99329.56
2023-04-26T23:45:48.109Z,99325.56
2023-04-26T23:48:36.046Z,99335.69
2023-04-26T23:51:23.157Z,99326.75
2023-04-26T23:54:10.437Z,99324.41
2023-04-26T23:56:57.570Z,99327.72
2023-04-26T23:59:44.906Z,99325.91
